首页
METAR-TAF:

METAR-TAF

机场 :

Scatsta, 设德兰群岛, 苏格兰

纬度: 60-26N, 经度: 001-18W, 海拔: 22米

当前天气观测

该预报发布于30分钟前的18:20 UTC
风速27节,风向西南
温度 7°C
湿度 87%
气压 992 hPa
能见度10公里或以上

METAR: EGPM 171820Z AUTO 23027KT 9999 SCT017/// BKN031/// 07/05 Q0992

时间: 18:50 (18:50 UTC)

预报

该预报发布于1小时和54分钟前的16:56 UTC
预报有效从17日的 18点(UTC)到 17日的 20点(UTC)
风速26节,风向西南,有时为38节阵风
能见度10公里或以上
少量云层高于3000英尺
成为
从 17日的 18点(UTC)到 17日的 20点(UTC)
风速24节,风向西转西南,有时为36节阵风
几率 40% :
短暂存在
从 17日的 18点(UTC)到 17日的 20点(UTC)
能見度: 6000
多云层高于1400英尺
阵雨

TAF: EGPM 171656Z 1718/1720 22026G38KT 9999 FEW030 BECMG 1718/1720 25024G36KT PROB40 TEMPO 1718/1720 6000 SHRA BKN014

超过4000个机场的气象观测和天气预报(METAR&TAF报告)。

可查询的气象台以黄色和红色小点在地图上表示。

将鼠标移到小点上方,可查看气象台名称。

然后点击查看天气观测和预报。

如需切换地图:点击带黑十字的绿色按钮放大地图;点击带横线的绿色按钮缩小地图;或者点击绿色箭头查看邻近地区的地图。


METAR-TAF: